Weather at Cupeyes Airport

Public forecast

Using degrees Celsius for public forecast. Weather courtesy of forecast.io.

Closest aviation weather report (METAR) to Cupeyes Airport

Closest report is Jardines Del Rey Airport, 37.2 nm (69.0 km) NNE. Retrieved 2021/06/20 08:50 UTC (38 minutes ago):

MUCC 200850Z 11004KT 9000 FEW020 25/25 Q1017

Closest aviation forecast (TAF) to Cupeyes Airport

Closest forecast is Jardines Del Rey Airport, 37.2 nm (69.0 km) NNE. Retrieved 2021/06/20 06:03 UTC (3 hours ago):

TAF MUCC 200500Z 2006/2106 VRB03KT 9000 SCT020 BECMG 2015/2017 09012KT BECMG 2101/2103 VRB03KT